Monte Alto, Texas
Current Conditions -  °F | °C
As of 6:15 PM on Wednesday 28 Jan 2015 (Local Time) from KT65 Reporting Station
Clear Clear  
Wind Chill: 69°   Ceiling: Unl
Heat Index: 69°   Visibility: 10mi
Dew Point: 56°   Wind: 12mph
Humidity: 63%   Direction: 160°SSE
Pressure: 30.12"   Gusts: 17mph
Location:  26.3131°N, 97.9381°W
Report Text: KT65 290015Z AUTO 16010G15KT 10SM CLR 21/14 A3012 RMK AO2 T02070135
Loading
Personal Weather Stations






























Interactive Weather Map New forecast layout! Learn more

10-Day Weather Forecast

Advertisements
Track Severe Weather on mobile